sensor_id;sensor_type;location;lat;lon;timestamp;pressure;altitude;pressure_sealevel;temperature;humidity
63535;BME280;55128;50.230;18.944;2023-09-19T00:01:46;97805.06;;;18.53;84.09
63535;BME280;55128;50.230;18.944;2023-09-19T00:06:46;97795.03;;;18.45;84.23
63535;BME280;55128;50.230;18.944;2023-09-19T00:11:49;97801.56;;;18.53;83.59
63535;BME280;55128;50.230;18.944;2023-09-19T00:16:50;97800.69;;;18.52;84.05
63535;BME280;55128;50.230;18.944;2023-09-19T00:21:50;97800.28;;;18.57;84.21
63535;BME280;55128;50.230;18.944;2023-09-19T00:26:50;97796.00;;;18.54;84.55
63535;BME280;55128;50.230;18.944;2023-09-19T00:31:50;97780.44;;;18.58;83.87
63535;BME280;55128;50.230;18.944;2023-09-19T00:36:51;97781.00;;;18.61;83.74
63535;BME280;55128;50.230;18.944;2023-09-19T00:41:53;97778.31;;;18.61;83.50
63535;BME280;55128;50.230;18.944;2023-09-19T00:46:54;97774.09;;;18.69;83.35
63535;BME280;55128;50.230;18.944;2023-09-19T00:51:55;97761.34;;;18.71;83.04
63535;BME280;55128;50.230;18.944;2023-09-19T00:56:55;97768.13;;;18.65;83.68
63535;BME280;55128;50.230;18.944;2023-09-19T01:01:56;97764.59;;;18.64;83.92
63535;BME280;55128;50.230;18.944;2023-09-19T01:06:56;97749.47;;;18.73;82.86
63535;BME280;55128;50.230;18.944;2023-09-19T01:12:01;97755.09;;;18.80;82.85
63535;BME280;55128;50.230;18.944;2023-09-19T01:17:29;97740.28;;;18.66;84.65
63535;BME280;55128;50.230;18.944;2023-09-19T01:22:46;97727.97;;;18.73;86.75
63535;BME280;55128;50.230;18.944;2023-09-19T01:32:59;97726.13;;;18.83;89.14
63535;BME280;55128;50.230;18.944;2023-09-19T01:38:00;97723.44;;;18.64;89.42
63535;BME280;55128;50.230;18.944;2023-09-19T01:48:43;97719.50;;;18.58;91.54
63535;BME280;55128;50.230;18.944;2023-09-19T01:53:55;97720.75;;;18.64;89.57
63535;BME280;55128;50.230;18.944;2023-09-19T01:58:59;97719.47;;;18.68;86.79
63535;BME280;55128;50.230;18.944;2023-09-19T02:04:04;97724.41;;;18.82;83.48
63535;BME280;55128;50.230;18.944;2023-09-19T02:09:04;97719.31;;;18.89;83.14
63535;BME280;55128;50.230;18.944;2023-09-19T02:14:05;97719.72;;;18.94;79.66
63535;BME280;55128;50.230;18.944;2023-09-19T02:19:08;97726.94;;;19.03;84.05
63535;BME280;55128;50.230;18.944;2023-09-19T02:24:09;97722.28;;;18.96;86.39
63535;BME280;55128;50.230;18.944;2023-09-19T02:29:10;97723.41;;;18.74;86.69
63535;BME280;55128;50.230;18.944;2023-09-19T02:34:12;97718.59;;;18.87;86.38
63535;BME280;55128;50.230;18.944;2023-09-19T02:39:14;97714.78;;;18.70;87.79
63535;BME280;55128;50.230;18.944;2023-09-19T02:44:14;97720.28;;;18.88;85.31
63535;BME280;55128;50.230;18.944;2023-09-19T02:49:15;97723.09;;;18.77;80.58
63535;BME280;55128;50.230;18.944;2023-09-19T02:54:15;97714.66;;;18.72;79.73
63535;BME280;55128;50.230;18.944;2023-09-19T02:59:19;97714.06;;;18.88;78.44
63535;BME280;55128;50.230;18.944;2023-09-19T03:04:19;97710.81;;;18.84;78.08
63535;BME280;55128;50.230;18.944;2023-09-19T03:09:20;97715.78;;;18.89;78.33
63535;BME280;55128;50.230;18.944;2023-09-19T03:14:20;97715.78;;;18.89;78.25
63535;BME280;55128;50.230;18.944;2023-09-19T03:19:21;97713.78;;;18.91;78.49
63535;BME280;55128;50.230;18.944;2023-09-19T03:24:23;97707.28;;;18.83;79.36
63535;BME280;55128;50.230;18.944;2023-09-19T03:29:24;97704.03;;;18.70;79.67
63535;BME280;55128;50.230;18.944;2023-09-19T03:34:25;97707.13;;;18.95;79.56
63535;BME280;55128;50.230;18.944;2023-09-19T03:39:26;97697.19;;;18.95;80.39
63535;BME280;55128;50.230;18.944;2023-09-19T03:44:26;97701.03;;;18.93;81.18
63535;BME280;55128;50.230;18.944;2023-09-19T03:49:26;97699.91;;;18.76;83.38
63535;BME280;55128;50.230;18.944;2023-09-19T03:54:27;97694.44;;;18.68;84.25
63535;BME280;55128;50.230;18.944;2023-09-19T03:59:27;97698.94;;;18.67;85.89
63535;BME280;55128;50.230;18.944;2023-09-19T04:04:29;97696.28;;;18.57;87.78
63535;BME280;55128;50.230;18.944;2023-09-19T04:09:29;97696.72;;;18.33;90.33
63535;BME280;55128;50.230;18.944;2023-09-19T04:14:30;97699.84;;;18.29;91.21
63535;BME280;55128;50.230;18.944;2023-09-19T04:19:30;97688.66;;;18.23;92.37
63535;BME280;55128;50.230;18.944;2023-09-19T04:24:31;97677.78;;;18.25;93.40
63535;BME280;55128;50.230;18.944;2023-09-19T04:29:32;97687.84;;;18.23;94.29
63535;BME280;55128;50.230;18.944;2023-09-19T04:34:33;97679.19;;;18.39;93.97
63535;BME280;55128;50.230;18.944;2023-09-19T04:39:34;97685.84;;;18.35;94.79
63535;BME280;55128;50.230;18.944;2023-09-19T04:44:34;97684.13;;;18.53;93.87
63535;BME280;55128;50.230;18.944;2023-09-19T04:49:36;97690.00;;;18.76;92.81
63535;BME280;55128;50.230;18.944;2023-09-19T04:54:37;97690.91;;;18.57;94.11
63535;BME280;55128;50.230;18.944;2023-09-19T04:59:37;97690.66;;;18.51;95.16
63535;BME280;55128;50.230;18.944;2023-09-19T05:04:38;97693.44;;;18.59;95.51
63535;BME280;55128;50.230;18.944;2023-09-19T05:09:38;97701.06;;;18.73;96.12
63535;BME280;55128;50.230;18.944;2023-09-19T05:14:39;97705.84;;;18.89;94.76
63535;BME280;55128;50.230;18.944;2023-09-19T05:19:40;97719.19;;;18.81;96.01
63535;BME280;55128;50.230;18.944;2023-09-19T05:24:41;97732.88;;;18.78;96.31
63535;BME280;55128;50.230;18.944;2023-09-19T05:29:41;97728.81;;;18.83;95.68
63535;BME280;55128;50.230;18.944;2023-09-19T05:34:42;97730.63;;;18.93;94.60
63535;BME280;55128;50.230;18.944;2023-09-19T05:39:44;97735.88;;;18.94;94.35
63535;BME280;55128;50.230;18.944;2023-09-19T05:44:44;97741.81;;;18.88;93.41
63535;BME280;55128;50.230;18.944;2023-09-19T05:49:44;97749.72;;;18.80;93.65
63535;BME280;55128;50.230;18.944;2023-09-19T05:54:45;97749.72;;;18.90;92.99
63535;BME280;55128;50.230;18.944;2023-09-19T05:59:45;97755.97;;;18.90;92.21
63535;BME280;55128;50.230;18.944;2023-09-19T06:04:46;97765.72;;;18.91;92.33
63535;BME280;55128;50.230;18.944;2023-09-19T06:09:47;97766.75;;;18.90;92.36
63535;BME280;55128;50.230;18.944;2023-09-19T06:14:47;97764.91;;;18.81;92.51
63535;BME280;55128;50.230;18.944;2023-09-19T06:19:48;97769.00;;;18.85;91.96
63535;BME280;55128;50.230;18.944;2023-09-19T06:24:50;97776.78;;;18.69;92.60
63535;BME280;55128;50.230;18.944;2023-09-19T06:29:50;97785.69;;;18.79;92.84
63535;BME280;55128;50.230;18.944;2023-09-19T06:34:52;97793.50;;;18.82;93.15
63535;BME280;55128;50.230;18.944;2023-09-19T06:39:54;97806.66;;;18.95;92.13
63535;BME280;55128;50.230;18.944;2023-09-19T06:44:54;97811.75;;;18.98;91.62
63535;BME280;55128;50.230;18.944;2023-09-19T06:49:56;97811.88;;;18.96;91.48
63535;BME280;55128;50.230;18.944;2023-09-19T06:54:56;97818.66;;;19.00;91.80
63535;BME280;55128;50.230;18.944;2023-09-19T06:59:57;97825.00;;;19.19;91.45
63535;BME280;55128;50.230;18.944;2023-09-19T07:04:57;97832.91;;;19.30;89.81
63535;BME280;55128;50.230;18.944;2023-09-19T07:09:57;97848.66;;;19.25;90.11
63535;BME280;55128;50.230;18.944;2023-09-19T07:14:58;97869.34;;;19.25;89.77
63535;BME280;55128;50.230;18.944;2023-09-19T07:19:58;97880.94;;;19.25;89.54
63535;BME280;55128;50.230;18.944;2023-09-19T07:24:59;97890.41;;;19.29;89.60
63535;BME280;55128;50.230;18.944;2023-09-19T07:29:59;97881.22;;;19.41;88.64
63535;BME280;55128;50.230;18.944;2023-09-19T07:34:59;97887.81;;;19.57;88.13
63535;BME280;55128;50.230;18.944;2023-09-19T07:40:00;97904.16;;;19.46;88.02
63535;BME280;55128;50.230;18.944;2023-09-19T07:45:08;97919.16;;;19.48;88.52
63535;BME280;55128;50.230;18.944;2023-09-19T07:50:08;97938.31;;;19.45;87.72
63535;BME280;55128;50.230;18.944;2023-09-19T07:55:10;97945.94;;;19.40;87.32
63535;BME280;55128;50.230;18.944;2023-09-19T08:00:11;97949.34;;;19.32;87.30
63535;BME280;55128;50.230;18.944;2023-09-19T08:05:13;97954.03;;;19.30;86.69
63535;BME280;55128;50.230;18.944;2023-09-19T08:10:16;97968.06;;;19.43;86.32
63535;BME280;55128;50.230;18.944;2023-09-19T08:15:19;97975.41;;;19.41;86.02
63535;BME280;55128;50.230;18.944;2023-09-19T08:20:20;97983.63;;;19.40;86.63
63535;BME280;55128;50.230;18.944;2023-09-19T08:25:22;97990.72;;;19.51;87.18
63535;BME280;55128;50.230;18.944;2023-09-19T08:30:24;98003.06;;;19.43;87.81
63535;BME280;55128;50.230;18.944;2023-09-19T08:35:24;98003.06;;;19.43;87.89
63535;BME280;55128;50.230;18.944;2023-09-19T08:40:24;98008.72;;;19.50;88.45
63535;BME280;55128;50.230;18.944;2023-09-19T08:45:30;98004.91;;;19.53;88.74
63535;BME280;55128;50.230;18.944;2023-09-19T08:50:31;98006.00;;;19.40;88.80
63535;BME280;55128;50.230;18.944;2023-09-19T08:55:34;98013.13;;;19.41;90.11
63535;BME280;55128;50.230;18.944;2023-09-19T09:00:34;98007.16;;;19.57;90.03
63535;BME280;55128;50.230;18.944;2023-09-19T09:05:36;98018.06;;;19.46;90.17
63535;BME280;55128;50.230;18.944;2023-09-19T09:10:37;98017.63;;;19.60;89.22
63535;BME280;55128;50.230;18.944;2023-09-19T09:15:38;98019.63;;;19.68;89.50
63535;BME280;55128;50.230;18.944;2023-09-19T09:20:38;98018.78;;;19.68;89.08
63535;BME280;55128;50.230;18.944;2023-09-19T09:25:48;98024.69;;;20.00;88.24
63535;BME280;55128;50.230;18.944;2023-09-19T09:30:57;98025.38;;;20.22;86.39
63535;BME280;55128;50.230;18.944;2023-09-19T09:36:03;98029.19;;;20.19;85.96
63535;BME280;55128;50.230;18.944;2023-09-19T09:41:05;98027.84;;;20.43;85.72
63535;BME280;55128;50.230;18.944;2023-09-19T09:46:10;98033.13;;;20.35;84.38
63535;BME280;55128;50.230;18.944;2023-09-19T09:51:30;98042.44;;;20.50;85.06
63535;BME280;55128;50.230;18.944;2023-09-19T09:56:57;98047.50;;;20.26;82.54
63535;BME280;55128;50.230;18.944;2023-09-19T10:02:04;98044.47;;;20.38;83.55
63535;BME280;55128;50.230;18.944;2023-09-19T10:07:05;98047.56;;;20.44;83.44
63535;BME280;55128;50.230;18.944;2023-09-19T10:12:12;98058.19;;;20.45;82.40
63535;BME280;55128;50.230;18.944;2023-09-19T10:17:18;98053.00;;;20.34;82.65
63535;BME280;55128;50.230;18.944;2023-09-19T10:22:20;98062.06;;;20.43;82.05
63535;BME280;55128;50.230;18.944;2023-09-19T10:27:24;98071.09;;;20.51;82.30
63535;BME280;55128;50.230;18.944;2023-09-19T10:32:28;98066.38;;;20.16;83.77
63535;BME280;55128;50.230;18.944;2023-09-19T10:37:34;98081.38;;;20.28;83.46
63535;BME280;55128;50.230;18.944;2023-09-19T10:42:39;98086.81;;;20.18;83.75
63535;BME280;55128;50.230;18.944;2023-09-19T10:47:41;98092.47;;;20.15;85.45
63535;BME280;55128;50.230;18.944;2023-09-19T10:52:43;98086.38;;;20.13;85.25
63535;BME280;55128;50.230;18.944;2023-09-19T10:57:44;98099.88;;;19.94;87.15
63535;BME280;55128;50.230;18.944;2023-09-19T11:08:14;98103.84;;;19.80;88.47
63535;BME280;55128;50.230;18.944;2023-09-19T11:13:25;98114.63;;;19.80;88.88
63535;BME280;55128;50.230;18.944;2023-09-19T11:18:52;98114.44;;;19.72;89.33
63535;BME280;55128;50.230;18.944;2023-09-19T11:29:28;98110.81;;;19.83;88.07
63535;BME280;55128;50.230;18.944;2023-09-19T11:39:40;98117.75;;;19.95;87.28
63535;BME280;55128;50.230;18.944;2023-09-19T11:45:00;98109.78;;;20.23;86.26
63535;BME280;55128;50.230;18.944;2023-09-19T11:50:01;98115.44;;;20.19;85.81
63535;BME280;55128;50.230;18.944;2023-09-19T11:55:02;98116.31;;;20.20;86.25
63535;BME280;55128;50.230;18.944;2023-09-19T12:00:03;98124.78;;;20.45;85.32
63535;BME280;55128;50.230;18.944;2023-09-19T12:05:05;98115.81;;;20.54;84.72
63535;BME280;55128;50.230;18.944;2023-09-19T12:10:06;98127.22;;;20.85;83.83
63535;BME280;55128;50.230;18.944;2023-09-19T12:15:11;98122.00;;;20.84;83.23
63535;BME280;55128;50.230;18.944;2023-09-19T12:20:12;98125.00;;;21.36;81.23
63535;BME280;55128;50.230;18.944;2023-09-19T12:25:13;98125.13;;;21.44;80.92
63535;BME280;55128;50.230;18.944;2023-09-19T12:30:16;98134.91;;;21.45;79.77
63535;BME280;55128;50.230;18.944;2023-09-19T12:35:28;98128.16;;;21.31;79.83
63535;BME280;55128;50.230;18.944;2023-09-19T12:40:30;98134.00;;;21.27;80.76
63535;BME280;55128;50.230;18.944;2023-09-19T12:45:36;98134.25;;;21.61;79.83
63535;BME280;55128;50.230;18.944;2023-09-19T12:51:08;98127.31;;;21.94;76.44
63535;BME280;55128;50.230;18.944;2023-09-19T12:56:17;98131.00;;;22.11;77.06
63535;BME280;55128;50.230;18.944;2023-09-19T13:01:18;98132.69;;;22.12;77.32
63535;BME280;55128;50.230;18.944;2023-09-19T13:06:35;98129.75;;;22.68;73.15
63535;BME280;55128;50.230;18.944;2023-09-19T13:11:42;98117.03;;;22.95;71.35
63535;BME280;55128;50.230;18.944;2023-09-19T13:17:01;98128.53;;;23.23;70.52
63535;BME280;55128;50.230;18.944;2023-09-19T13:22:41;98125.91;;;23.39;68.28
63535;BME280;55128;50.230;18.944;2023-09-19T13:28:04;98125.84;;;23.23;68.92
63535;BME280;55128;50.230;18.944;2023-09-19T13:33:11;98130.16;;;23.50;68.24
63535;BME280;55128;50.230;18.944;2023-09-19T13:38:14;98126.81;;;22.87;68.86
63535;BME280;55128;50.230;18.944;2023-09-19T13:43:14;98127.19;;;22.58;69.93
63535;BME280;55128;50.230;18.944;2023-09-19T13:48:14;98127.53;;;22.63;69.38
63535;BME280;55128;50.230;18.944;2023-09-19T13:53:15;98129.59;;;22.43;70.10
63535;BME280;55128;50.230;18.944;2023-09-19T13:58:16;98144.09;;;21.52;72.30
63535;BME280;55128;50.230;18.944;2023-09-19T14:03:17;98147.72;;;21.06;75.40
63535;BME280;55128;50.230;18.944;2023-09-19T14:08:26;98139.25;;;21.01;76.45
63535;BME280;55128;50.230;18.944;2023-09-19T14:13:27;98147.22;;;20.92;77.85
63535;BME280;55128;50.230;18.944;2023-09-19T14:18:28;98141.28;;;21.16;77.04
63535;BME280;55128;50.230;18.944;2023-09-19T14:23:28;98135.97;;;21.34;75.25
63535;BME280;55128;50.230;18.944;2023-09-19T14:28:29;98138.03;;;21.41;75.48
63535;BME280;55128;50.230;18.944;2023-09-19T14:33:33;98143.88;;;21.46;74.75
63535;BME280;55128;50.230;18.944;2023-09-19T14:38:37;98144.16;;;22.06;70.32
63535;BME280;55128;50.230;18.944;2023-09-19T14:43:38;98145.38;;;21.94;70.28
63535;BME280;55128;50.230;18.944;2023-09-19T14:48:38;98151.44;;;21.60;69.89
63535;BME280;55128;50.230;18.944;2023-09-19T14:53:40;98153.84;;;21.35;71.45
63535;BME280;55128;50.230;18.944;2023-09-19T14:58:41;98160.28;;;20.97;74.30
63535;BME280;55128;50.230;18.944;2023-09-19T15:03:42;98163.88;;;20.88;75.06
63535;BME280;55128;50.230;18.944;2023-09-19T15:08:44;98157.63;;;20.87;72.38
63535;BME280;55128;50.230;18.944;2023-09-19T15:13:52;98161.94;;;20.51;70.77
63535;BME280;55128;50.230;18.944;2023-09-19T15:18:53;98151.72;;;20.54;71.10
63535;BME280;55128;50.230;18.944;2023-09-19T15:23:55;98132.41;;;20.59;71.16
63535;BME280;55128;50.230;18.944;2023-09-19T15:28:56;98155.56;;;20.62;72.31
63535;BME280;55128;50.230;18.944;2023-09-19T15:33:56;98152.59;;;20.45;72.66
63535;BME280;55128;50.230;18.944;2023-09-19T15:39:05;98144.47;;;20.55;72.02
63535;BME280;55128;50.230;18.944;2023-09-19T15:44:16;98145.53;;;20.25;73.49
63535;BME280;55128;50.230;18.944;2023-09-19T15:49:16;98142.97;;;19.74;77.20
63535;BME280;55128;50.230;18.944;2023-09-19T15:54:17;98144.22;;;19.60;78.87
63535;BME280;55128;50.230;18.944;2023-09-19T15:59:18;98134.38;;;19.40;80.11
63535;BME280;55128;50.230;18.944;2023-09-19T16:04:18;98146.00;;;19.40;80.79
63535;BME280;55128;50.230;18.944;2023-09-19T16:09:19;98145.13;;;19.20;81.99
63535;BME280;55128;50.230;18.944;2023-09-19T16:14:19;98158.28;;;19.23;81.81
63535;BME280;55128;50.230;18.944;2023-09-19T16:19:20;98158.88;;;19.27;81.81
63535;BME280;55128;50.230;18.944;2023-09-19T16:24:20;98160.50;;;19.09;82.27
63535;BME280;55128;50.230;18.944;2023-09-19T16:29:20;98167.22;;;18.93;83.10
63535;BME280;55128;50.230;18.944;2023-09-19T16:34:24;98164.06;;;18.57;84.78
63535;BME280;55128;50.230;18.944;2023-09-19T16:39:25;98169.03;;;18.41;86.70
63535;BME280;55128;50.230;18.944;2023-09-19T16:44:26;98177.34;;;18.17;88.05
63535;BME280;55128;50.230;18.944;2023-09-19T16:49:27;98183.53;;;18.08;87.82
63535;BME280;55128;50.230;18.944;2023-09-19T16:54:28;98180.94;;;17.74;88.99
63535;BME280;55128;50.230;18.944;2023-09-19T16:59:29;98197.66;;;17.55;90.25
63535;BME280;55128;50.230;18.944;2023-09-19T17:04:29;98197.47;;;17.13;93.27
63535;BME280;55128;50.230;18.944;2023-09-19T17:09:31;98212.63;;;17.14;91.25
63535;BME280;55128;50.230;18.944;2023-09-19T17:14:35;98219.56;;;17.05;91.10
63535;BME280;55128;50.230;18.944;2023-09-19T17:19:35;98217.81;;;16.93;91.55
63535;BME280;55128;50.230;18.944;2023-09-19T17:24:36;98221.88;;;16.63;94.11
63535;BME280;55128;50.230;18.944;2023-09-19T17:29:36;98227.72;;;16.57;93.12
63535;BME280;55128;50.230;18.944;2023-09-19T17:34:36;98228.44;;;16.47;92.78
63535;BME280;55128;50.230;18.944;2023-09-19T17:39:37;98244.38;;;16.38;93.50
63535;BME280;55128;50.230;18.944;2023-09-19T17:44:37;98244.28;;;16.15;93.91
63535;BME280;55128;50.230;18.944;2023-09-19T17:49:38;98248.38;;;16.08;93.59
63535;BME280;55128;50.230;18.944;2023-09-19T17:54:39;98243.31;;;15.92;94.62
63535;BME280;55128;50.230;18.944;2023-09-19T17:59:39;98244.56;;;15.75;95.81
63535;BME280;55128;50.230;18.944;2023-09-19T18:04:40;98252.59;;;15.75;96.27
63535;BME280;55128;50.230;18.944;2023-09-19T18:09:40;98264.00;;;15.90;95.16
63535;BME280;55128;50.230;18.944;2023-09-19T18:14:41;98260.88;;;15.96;95.19
63535;BME280;55128;50.230;18.944;2023-09-19T18:19:41;98263.09;;;16.02;95.41
63535;BME280;55128;50.230;18.944;2023-09-19T18:24:42;98271.28;;;16.12;95.39
63535;BME280;55128;50.230;18.944;2023-09-19T18:29:42;98272.41;;;15.97;97.84
63535;BME280;55128;50.230;18.944;2023-09-19T18:34:45;98281.16;;;16.11;96.84
63535;BME280;55128;50.230;18.944;2023-09-19T18:39:45;98287.22;;;15.89;96.64
63535;BME280;55128;50.230;18.944;2023-09-19T18:44:46;98283.06;;;15.85;95.97
63535;BME280;55128;50.230;18.944;2023-09-19T18:49:46;98288.78;;;15.55;97.66
63535;BME280;55128;50.230;18.944;2023-09-19T18:54:48;98290.38;;;15.58;97.71
63535;BME280;55128;50.230;18.944;2023-09-19T18:59:49;98297.56;;;15.44;96.86
63535;BME280;55128;50.230;18.944;2023-09-19T19:04:50;98304.31;;;15.37;96.81
63535;BME280;55128;50.230;18.944;2023-09-19T19:09:51;98300.59;;;15.27;97.21
63535;BME280;55128;50.230;18.944;2023-09-19T19:14:52;98305.31;;;15.36;97.24
63535;BME280;55128;50.230;18.944;2023-09-19T19:19:53;98307.00;;;15.37;96.65
63535;BME280;55128;50.230;18.944;2023-09-19T19:24:54;98311.19;;;15.41;96.72
63535;BME280;55128;50.230;18.944;2023-09-19T19:29:57;98314.28;;;15.48;95.85
63535;BME280;55128;50.230;18.944;2023-09-19T19:34:57;98314.72;;;15.29;96.42
63535;BME280;55128;50.230;18.944;2023-09-19T19:39:57;98320.06;;;15.29;97.18
63535;BME280;55128;50.230;18.944;2023-09-19T19:44:59;98317.28;;;15.30;96.79
63535;BME280;55128;50.230;18.944;2023-09-19T19:50:00;98317.28;;;15.18;97.81
63535;BME280;55128;50.230;18.944;2023-09-19T19:55:00;98313.53;;;15.20;97.70
63535;BME280;55128;50.230;18.944;2023-09-19T20:00:02;98313.78;;;15.17;97.70
63535;BME280;55128;50.230;18.944;2023-09-19T20:05:06;98320.94;;;15.16;97.99
63535;BME280;55128;50.230;18.944;2023-09-19T20:10:07;98323.81;;;15.13;97.93
63535;BME280;55128;50.230;18.944;2023-09-19T20:15:08;98322.97;;;15.13;98.06
63535;BME280;55128;50.230;18.944;2023-09-19T20:20:11;98320.72;;;15.20;97.19
63535;BME280;55128;50.230;18.944;2023-09-19T20:25:18;98325.66;;;15.13;97.30
63535;BME280;55128;50.230;18.944;2023-09-19T20:30:21;98325.66;;;15.13;97.97
63535;BME280;55128;50.230;18.944;2023-09-19T20:35:23;98332.69;;;15.14;97.76
63535;BME280;55128;50.230;18.944;2023-09-19T20:40:23;98331.50;;;15.05;97.91
63535;BME280;55128;50.230;18.944;2023-09-19T20:45:24;98328.50;;;14.97;97.29
63535;BME280;55128;50.230;18.944;2023-09-19T20:50:24;98333.94;;;14.83;97.66
63535;BME280;55128;50.230;18.944;2023-09-19T20:55:26;98324.94;;;14.71;97.44
63535;BME280;55128;50.230;18.944;2023-09-19T21:00:27;98327.38;;;14.61;99.14
63535;BME280;55128;50.230;18.944;2023-09-19T21:05:27;98335.78;;;14.55;98.13
63535;BME280;55128;50.230;18.944;2023-09-19T21:10:28;98333.81;;;14.44;97.67
63535;BME280;55128;50.230;18.944;2023-09-19T21:15:29;98338.03;;;14.34;97.61
63535;BME280;55128;50.230;18.944;2023-09-19T21:20:29;98333.72;;;14.18;97.92
63535;BME280;55128;50.230;18.944;2023-09-19T21:25:34;98335.28;;;14.08;99.08
63535;BME280;55128;50.230;18.944;2023-09-19T21:30:34;98337.59;;;14.00;98.25
63535;BME280;55128;50.230;18.944;2023-09-19T21:35:43;98342.72;;;14.03;98.37
63535;BME280;55128;50.230;18.944;2023-09-19T21:40:44;98344.09;;;13.96;98.18
63535;BME280;55128;50.230;18.944;2023-09-19T21:45:44;98343.22;;;13.95;98.12
63535;BME280;55128;50.230;18.944;2023-09-19T21:50:54;98340.41;;;13.84;97.98
63535;BME280;55128;50.230;18.944;2023-09-19T21:56:00;98345.56;;;13.73;97.61
63535;BME280;55128;50.230;18.944;2023-09-19T22:01:01;98350.31;;;13.68;97.55
63535;BME280;55128;50.230;18.944;2023-09-19T22:06:09;98341.97;;;13.59;97.54
63535;BME280;55128;50.230;18.944;2023-09-19T22:11:10;98343.19;;;13.54;97.41
63535;BME280;55128;50.230;18.944;2023-09-19T22:16:15;98343.88;;;13.57;98.27
63535;BME280;55128;50.230;18.944;2023-09-19T22:21:17;98344.53;;;13.61;99.12
63535;BME280;55128;50.230;18.944;2023-09-19T22:26:45;98349.00;;;13.60;98.75
63535;BME280;55128;50.230;18.944;2023-09-19T22:31:47;98340.31;;;13.57;98.66
63535;BME280;55128;50.230;18.944;2023-09-19T22:36:47;98342.63;;;13.49;98.33
63535;BME280;55128;50.230;18.944;2023-09-19T22:41:54;98347.50;;;13.42;98.76
63535;BME280;55128;50.230;18.944;2023-09-19T22:46:59;98341.38;;;13.40;98.35
63535;BME280;55128;50.230;18.944;2023-09-19T22:51:59;98354.41;;;13.30;97.87
63535;BME280;55128;50.230;18.944;2023-09-19T22:57:00;98346.06;;;13.36;98.44
63535;BME280;55128;50.230;18.944;2023-09-19T23:02:02;98358.03;;;13.29;98.82
63535;BME280;55128;50.230;18.944;2023-09-19T23:07:04;98356.78;;;13.20;98.52
63535;BME280;55128;50.230;18.944;2023-09-19T23:12:06;98359.53;;;13.19;98.18
63535;BME280;55128;50.230;18.944;2023-09-19T23:17:07;98370.28;;;13.17;97.95
63535;BME280;55128;50.230;18.944;2023-09-19T23:22:14;98368.97;;;13.10;98.19
63535;BME280;55128;50.230;18.944;2023-09-19T23:27:17;98367.69;;;13.01;98.13
63535;BME280;55128;50.230;18.944;2023-09-19T23:32:24;98367.00;;;12.98;97.63
63535;BME280;55128;50.230;18.944;2023-09-19T23:37:25;98370.22;;;12.89;97.45
63535;BME280;55128;50.230;18.944;2023-09-19T23:42:25;98377.16;;;12.91;97.96
63535;BME280;55128;50.230;18.944;2023-09-19T23:47:27;98377.28;;;12.90;97.27
63535;BME280;55128;50.230;18.944;2023-09-19T23:52:28;98386.97;;;12.91;97.45
63535;BME280;55128;50.230;18.944;2023-09-19T23:57:28;98387.75;;;12.93;98.05
